Time;durP1;ratioP1;P1;durP2;ratioP2;P2;SDS_P1;SDS_P2;PMS_P1;PMS_P2;Temp;Humidity;BMP_temperature;BMP_pressure;BME280_temperature;BME280_humidity;BME280_pressure;Samples;Min_cycle;Max_cycle;Signal;HPM_P1;HPM_P2
2022/12/20 00:00:14;;;;;;;104.65;63.80;;;1.30;99.90;;;;;;5054355;28;20063;-75
2022/12/20 00:02:39;;;;;;;95.97;58.13;;;1.10;99.90;;;;;;5050992;28;20025;-77
2022/12/20 00:05:06;;;;;;;105.07;65.72;;;1.10;99.90;;;;;;5045931;28;20519;-76
2022/12/20 00:07:35;;;;;;;110.75;68.72;;;1.10;99.90;;;;;;5050109;28;20381;-77
2022/12/20 00:10:00;;;;;;;129.75;73.78;;;1.10;99.90;;;;;;5052874;28;20036;-78
2022/12/20 00:12:29;;;;;;;130.05;79.95;;;1.10;99.90;;;;;;5052015;28;20025;-76
2022/12/20 00:14:55;;;;;;;125.78;82.00;;;1.10;99.90;;;;;;5053422;28;20021;-74
2022/12/20 00:17:21;;;;;;;133.30;83.93;;;1.10;99.90;;;;;;5035053;28;20033;-75
2022/12/20 00:19:47;;;;;;;149.70;94.45;;;1.10;99.90;;;;;;5049697;28;20383;-74
2022/12/20 00:22:13;;;;;;;161.07;102.43;;;1.00;99.90;;;;;;5051364;28;20041;-74
2022/12/20 00:24:38;;;;;;;169.50;103.97;;;0.90;99.90;;;;;;5053606;28;20507;-75
2022/12/20 00:27:04;;;;;;;130.63;81.80;;;0.80;99.90;;;;;;5045602;28;20021;-74
2022/12/20 00:29:30;;;;;;;119.78;72.70;;;0.80;99.90;;;;;;5054007;28;20080;-75
2022/12/20 00:31:56;;;;;;;110.13;68.45;;;0.70;99.90;;;;;;5053535;28;20028;-75
2022/12/20 00:34:22;;;;;;;103.93;63.42;;;0.60;99.90;;;;;;5049208;28;20040;-74
2022/12/20 00:36:47;;;;;;;99.53;62.70;;;0.50;99.90;;;;;;5028048;28;20384;-74
2022/12/20 00:39:13;;;;;;;88.10;55.25;;;0.40;99.90;;;;;;5053687;28;20106;-74
2022/12/20 00:41:39;;;;;;;103.65;69.55;;;0.40;99.90;;;;;;5053975;28;20021;-74
2022/12/20 00:44:05;;;;;;;115.60;73.85;;;0.30;99.90;;;;;;5034398;28;20045;-75
2022/12/20 00:46:33;;;;;;;105.93;70.65;;;0.30;99.90;;;;;;5053775;28;20490;-73
2022/12/20 00:48:59;;;;;;;100.35;62.72;;;0.20;99.90;;;;;;5043370;28;20428;-74
2022/12/20 00:51:27;;;;;;;101.68;60.83;;;0.30;99.90;;;;;;5037678;28;20027;-73
2022/12/20 00:53:53;;;;;;;99.43;65.53;;;0.20;99.90;;;;;;5031666;28;20043;-76
2022/12/20 00:56:20;;;;;;;92.20;61.22;;;0.10;99.90;;;;;;5027456;28;20503;-74
2022/12/20 00:58:46;;;;;;;83.40;54.25;;;0.10;99.90;;;;;;5030498;28;20029;-74
2022/12/20 01:01:17;;;;;;;79.25;48.83;;;0.20;99.90;;;;;;5045444;28;20044;-73
2022/12/20 01:03:43;;;;;;;72.18;46.10;;;0.20;99.90;;;;;;5035288;28;20083;-74
2022/12/20 01:06:10;;;;;;;72.18;47.13;;;0.20;99.90;;;;;;5053087;28;20538;-74
2022/12/20 01:08:36;;;;;;;74.35;47.05;;;0.20;99.90;;;;;;5035296;28;20090;-73
2022/12/20 01:11:05;;;;;;;74.68;48.72;;;0.20;99.90;;;;;;5035088;28;20082;-74
2022/12/20 01:13:33;;;;;;;77.30;46.70;;;0.20;99.90;;;;;;5053417;28;20029;-74
2022/12/20 01:16:14;;;;;;;77.15;48.45;;;0.20;99.90;;;;;;5045299;28;20021;-74
2022/12/20 01:18:40;;;;;;;72.88;43.53;;;0.20;99.90;;;;;;5021226;28;20040;-74
2022/12/20 01:21:09;;;;;;;79.43;49.45;;;0.20;99.90;;;;;;5045528;28;20124;-74
2022/12/20 01:23:36;;;;;;;83.97;51.83;;;0.20;99.90;;;;;;5049772;28;20028;-73
2022/12/20 01:26:04;;;;;;;74.05;48.42;;;0.20;99.90;;;;;;5052737;28;20028;-73
2022/12/20 01:28:31;;;;;;;76.30;48.35;;;0.20;99.90;;;;;;5041273;28;20037;-75
2022/12/20 01:30:57;;;;;;;74.75;50.10;;;0.20;99.90;;;;;;5043991;28;20028;-75
2022/12/20 01:33:23;;;;;;;77.07;50.50;;;0.20;99.90;;;;;;5045982;28;20029;-73
2022/12/20 01:36:00;;;;;;;76.75;48.75;;;0.30;99.90;;;;;;5041630;28;20044;-73
2022/12/20 01:38:27;;;;;;;80.85;49.33;;;0.30;99.90;;;;;;5034659;28;20036;-73
2022/12/20 01:40:53;;;;;;;78.00;49.00;;;0.30;99.90;;;;;;5052321;28;20139;-74
2022/12/20 01:43:20;;;;;;;65.65;44.67;;;0.40;99.90;;;;;;5052698;28;20036;-73
2022/12/20 01:45:46;;;;;;;64.55;44.70;;;0.30;99.90;;;;;;5034672;28;20017;-74
2022/12/20 01:48:20;;;;;;;77.38;47.20;;;0.30;99.90;;;;;;5052778;28;20029;-74
2022/12/20 01:50:47;;;;;;;71.53;45.20;;;0.20;99.90;;;;;;5028304;28;20038;-75
2022/12/20 01:53:16;;;;;;;71.03;44.97;;;0.20;99.90;;;;;;5031800;28;20029;-73
2022/12/20 01:55:42;;;;;;;78.22;49.17;;;0.20;99.90;;;;;;5039348;28;20072;-73
2022/12/20 01:58:11;;;;;;;80.20;48.50;;;0.20;99.90;;;;;;5029184;28;20032;-77
2022/12/20 02:00:37;;;;;;;80.70;52.85;;;0.20;99.90;;;;;;5030600;28;20476;-74
2022/12/20 02:03:06;;;;;;;93.25;54.53;;;0.00;99.90;;;;;;5029876;28;20060;-73
2022/12/20 02:05:35;;;;;;;83.03;53.33;;;0.00;99.90;;;;;;5034552;28;20823;-76
2022/12/20 02:08:03;;;;;;;102.18;62.53;;;-0.10;99.90;;;;;;5049112;28;20387;-75
2022/12/20 02:10:52;;;;;;;99.50;60.75;;;-0.20;99.90;;;;;;5024461;28;20033;-74
2022/12/20 02:13:38;;;;;;;97.40;59.58;;;-0.30;99.90;;;;;;5052420;28;20400;-75
2022/12/20 02:16:05;;;;;;;89.75;60.00;;;-0.30;99.90;;;;;;5038235;28;20095;-75
2022/12/20 02:18:41;;;;;;;102.20;62.83;;;-0.40;99.90;;;;;;5041212;28;20053;-77
2022/12/20 02:21:25;;;;;;;95.70;60.92;;;-0.50;99.90;;;;;;5039933;28;20037;-76
2022/12/20 02:24:16;;;;;;;95.13;58.97;;;-0.50;99.90;;;;;;5033052;28;20430;-75
2022/12/20 02:27:00;;;;;;;104.85;66.28;;;-0.50;99.90;;;;;;5032167;28;20380;-74
2022/12/20 02:30:00;;;;;;;112.10;69.22;;;-0.60;99.90;;;;;;5050460;28;20107;-75
2022/12/20 02:32:36;;;;;;;109.57;62.47;;;-0.60;99.90;;;;;;5033623;28;20032;-74
2022/12/20 02:35:06;;;;;;;101.50;64.25;;;-0.50;99.90;;;;;;5034020;28;20021;-76
2022/12/20 02:37:32;;;;;;;102.80;63.40;;;-0.40;99.90;;;;;;5033714;28;20033;-75
2022/12/20 02:39:59;;;;;;;104.13;62.95;;;-0.40;99.90;;;;;;5033199;28;20037;-77
2022/12/20 02:42:27;;;;;;;98.90;65.00;;;-0.30;99.90;;;;;;5028600;28;20092;-74
2022/12/20 02:45:16;;;;;;;112.90;67.50;;;-0.40;99.90;;;;;;5025856;28;20428;-78
2022/12/20 02:48:20;;;;;;;101.50;65.22;;;-0.60;99.90;;;;;;5025991;28;20040;-77
2022/12/20 02:50:50;;;;;;;108.35;63.38;;;-0.60;99.90;;;;;;5039132;28;20075;-77
2022/12/20 02:53:17;;;;;;;99.07;62.25;;;-0.50;99.90;;;;;;5048800;28;20423;-76
2022/12/20 02:55:43;;;;;;;122.65;69.53;;;-0.50;99.90;;;;;;5033834;28;20021;-77
2022/12/20 02:58:28;;;;;;;131.43;69.20;;;-0.60;99.90;;;;;;5033704;28;20035;-78
2022/12/20 03:00:58;;;;;;;191.60;72.38;;;-0.60;99.90;;;;;;5033366;28;20029;-75
2022/12/20 03:03:24;;;;;;;162.85;73.10;;;-0.70;99.90;;;;;;5034539;28;20073;-78
2022/12/20 03:05:53;;;;;;;170.30;74.88;;;-0.90;99.90;;;;;;5027704;28;20296;-73
2022/12/20 03:08:20;;;;;;;143.05;69.15;;;-0.90;99.90;;;;;;5035987;28;20064;-74
2022/12/20 03:10:48;;;;;;;212.10;75.50;;;-1.00;99.90;;;;;;5024125;28;20041;-74
2022/12/20 03:13:14;;;;;;;170.68;73.32;;;-1.00;99.90;;;;;;5037657;28;20013;-74
2022/12/20 03:15:48;;;;;;;262.08;89.32;;;-1.10;99.90;;;;;;5037251;28;20433;-73
2022/12/20 03:18:14;;;;;;;233.60;76.57;;;-1.20;99.90;;;;;;5037252;28;20021;-75
2022/12/20 03:20:39;;;;;;;327.33;91.28;;;-1.20;99.90;;;;;;5026416;28;20502;-74
2022/12/20 03:23:05;;;;;;;216.05;67.18;;;-1.30;99.90;;;;;;5049928;28;20160;-74
2022/12/20 03:25:31;;;;;;;231.18;72.88;;;-1.20;99.90;;;;;;5048880;28;20021;-74
2022/12/20 03:27:59;;;;;;;142.13;65.38;;;-1.40;99.90;;;;;;5050904;28;20033;-74
2022/12/20 03:30:26;;;;;;;167.50;68.60;;;-1.30;99.90;;;;;;5050428;28;20392;-74
2022/12/20 03:32:52;;;;;;;160.00;63.50;;;-1.30;99.90;;;;;;5046413;28;20037;-74
2022/12/20 03:35:18;;;;;;;214.48;73.63;;;-1.30;99.90;;;;;;5040196;28;20033;-74
2022/12/20 03:37:45;;;;;;;219.95;75.28;;;-1.40;99.90;;;;;;5028273;28;20033;-73
2022/12/20 03:40:11;;;;;;;230.52;76.40;;;-1.40;99.90;;;;;;5047080;28;20021;-74
2022/12/20 03:42:38;;;;;;;196.70;65.57;;;-1.30;99.90;;;;;;5045706;28;20033;-73
2022/12/20 03:45:04;;;;;;;142.45;59.90;;;-1.40;99.90;;;;;;5023597;28;20434;-73
2022/12/20 03:47:30;;;;;;;227.82;70.80;;;-1.30;99.90;;;;;;5037083;28;20192;-74
2022/12/20 03:49:56;;;;;;;236.02;75.22;;;-1.20;99.90;;;;;;5036672;28;20864;-73
2022/12/20 03:52:22;;;;;;;182.25;62.13;;;-1.40;99.90;;;;;;5036948;28;20033;-74
2022/12/20 03:54:48;;;;;;;170.25;62.08;;;-1.40;99.90;;;;;;5036193;28;20094;-73
2022/12/20 03:57:18;;;;;;;227.40;69.25;;;-1.40;99.90;;;;;;5036639;28;20373;-73
2022/12/20 03:59:47;;;;;;;159.93;59.78;;;-1.40;99.90;;;;;;5023413;28;20059;-73
2022/12/20 04:02:14;;;;;;;168.05;68.90;;;-1.40;99.90;;;;;;5054015;28;20028;-77
2022/12/20 04:04:40;;;;;;;198.05;66.75;;;-1.50;99.90;;;;;;5030875;28;20033;-75
2022/12/20 04:07:07;;;;;;;185.57;61.42;;;-1.40;99.90;;;;;;5029443;28;20025;-75
2022/12/20 04:09:35;;;;;;;236.68;83.53;;;-1.30;99.90;;;;;;5036537;28;20513;-73
2022/12/20 04:12:09;;;;;;;260.17;80.75;;;-1.30;99.90;;;;;;5035491;28;20022;-75
2022/12/20 04:14:37;;;;;;;248.10;82.05;;;-1.20;99.90;;;;;;5024283;28;20040;-75
2022/12/20 04:17:04;;;;;;;224.65;62.35;;;-1.10;99.90;;;;;;5035946;28;20025;-75
2022/12/20 04:19:30;;;;;;;200.85;74.97;;;-1.10;99.90;;;;;;5036156;28;20122;-74
2022/12/20 04:21:57;;;;;;;227.55;74.82;;;-1.10;99.90;;;;;;5035930;28;20047;-74
2022/12/20 04:24:26;;;;;;;272.02;82.38;;;-1.10;99.90;;;;;;5036186;28;20029;-75
2022/12/20 04:27:02;;;;;;;173.32;65.88;;;-1.10;99.90;;;;;;5036203;28;20029;-75
2022/12/20 04:29:28;;;;;;;213.90;81.28;;;-1.10;99.90;;;;;;5053873;28;20036;-75
2022/12/20 04:31:54;;;;;;;170.45;65.53;;;-1.00;99.90;;;;;;5035945;28;20017;-75
2022/12/20 04:34:21;;;;;;;141.73;58.08;;;-1.00;99.90;;;;;;5035557;28;20033;-75
2022/12/20 04:36:47;;;;;;;179.82;65.22;;;-1.00;99.90;;;;;;5033003;28;20024;-75
2022/12/20 04:39:21;;;;;;;255.55;78.53;;;-1.00;99.90;;;;;;5019485;28;20041;-77
2022/12/20 04:42:07;;;;;;;222.32;68.07;;;-1.00;99.90;;;;;;5043001;28;20029;-75
2022/12/20 04:44:33;;;;;;;269.20;78.85;;;-0.90;99.90;;;;;;5035398;28;20027;-76
2022/12/20 04:46:58;;;;;;;228.15;68.18;;;-0.80;99.90;;;;;;5034613;28;20013;-76
2022/12/20 04:49:26;;;;;;;131.93;59.42;;;-0.90;99.90;;;;;;5046643;28;20365;-75
2022/12/20 04:51:52;;;;;;;163.65;60.35;;;-0.80;99.90;;;;;;5053258;28;20039;-76
2022/12/20 04:54:18;;;;;;;136.45;58.90;;;-0.70;99.90;;;;;;5034502;28;20033;-77
2022/12/20 04:56:53;;;;;;;179.02;65.88;;;-0.60;99.90;;;;;;5032788;28;20033;-76
2022/12/20 04:59:21;;;;;;;156.98;59.78;;;-0.70;99.90;;;;;;5035232;28;20041;-76
2022/12/20 05:01:50;;;;;;;160.73;65.38;;;-0.60;99.90;;;;;;5034893;28;20029;-74
2022/12/20 05:04:30;;;;;;;190.10;65.25;;;-0.70;99.90;;;;;;5035078;28;20124;-76
2022/12/20 05:06:56;;;;;;;163.40;62.20;;;-0.70;99.90;;;;;;5045114;28;20081;-74
2022/12/20 05:09:22;;;;;;;188.95;62.35;;;-0.70;99.90;;;;;;5031728;28;20046;-74
2022/12/20 05:11:49;;;;;;;123.97;55.65;;;-0.70;99.90;;;;;;5031021;28;20060;-76
2022/12/20 05:14:14;;;;;;;190.38;61.00;;;-0.60;99.90;;;;;;5032297;28;20072;-76
2022/12/20 05:16:40;;;;;;;230.10;67.00;;;-0.60;99.90;;;;;;5034114;28;20031;-76
2022/12/20 05:19:06;;;;;;;180.57;54.63;;;-0.70;99.90;;;;;;5034706;28;20116;-76
2022/12/20 05:27:21;;;;;;;218.07;71.03;;;-0.60;99.90;;;;;;5030584;28;20514;-74
2022/12/20 05:29:48;;;;;;;121.82;63.90;;;-0.60;99.90;;;;;;5034111;28;20025;-74
2022/12/20 05:32:14;;;;;;;196.55;65.68;;;-0.70;99.90;;;;;;5032889;28;20025;-74
2022/12/20 05:34:41;;;;;;;158.50;60.83;;;-0.60;99.90;;;;;;5034304;28;20052;-76
2022/12/20 05:37:07;;;;;;;116.25;57.05;;;-0.50;99.90;;;;;;5028481;28;20369;-75
2022/12/20 05:39:35;;;;;;;165.13;59.13;;;-0.40;99.90;;;;;;5032612;28;20076;-76
2022/12/20 05:42:06;;;;;;;140.18;55.83;;;-0.30;99.90;;;;;;5026139;28;20028;-74
2022/12/20 05:44:33;;;;;;;122.75;54.55;;;-0.30;99.90;;;;;;5028672;28;20037;-75
2022/12/20 05:46:59;;;;;;;129.38;58.67;;;-0.20;99.90;;;;;;5021529;28;20025;-74
2022/12/20 05:49:28;;;;;;;146.13;58.72;;;-0.20;99.90;;;;;;5029040;28;20115;-75
2022/12/20 05:51:57;;;;;;;150.38;57.22;;;-0.10;99.90;;;;;;5034654;28;20017;-75
2022/12/20 05:54:24;;;;;;;235.73;67.50;;;-0.20;99.90;;;;;;5034022;28;20033;-75
2022/12/20 05:56:55;;;;;;;164.23;59.83;;;-0.20;99.90;;;;;;5034090;28;20025;-75
2022/12/20 05:59:29;;;;;;;114.78;53.72;;;-0.30;99.90;;;;;;5033987;28;20459;-75
2022/12/20 06:01:55;;;;;;;156.55;56.13;;;-0.20;99.90;;;;;;5030557;28;20467;-74
2022/12/20 06:04:22;;;;;;;179.38;58.58;;;-0.20;99.90;;;;;;5034484;28;20024;-74
2022/12/20 06:06:51;;;;;;;132.73;58.95;;;-0.40;99.90;;;;;;5051605;28;20357;-75
2022/12/20 06:09:18;;;;;;;166.18;60.67;;;-0.40;99.90;;;;;;5033931;28;20060;-74
2022/12/20 06:11:52;;;;;;;126.25;57.55;;;-0.40;99.90;;;;;;5039224;28;20032;-75
2022/12/20 06:14:18;;;;;;;243.30;73.45;;;-0.40;99.90;;;;;;5033570;28;20033;-74
2022/12/20 06:16:46;;;;;;;202.82;58.53;;;-0.50;99.90;;;;;;5051469;28;20342;-74
2022/12/20 06:19:14;;;;;;;119.85;55.10;;;-0.50;99.90;;;;;;5028055;28;20033;-74
2022/12/20 06:21:40;;;;;;;163.73;51.30;;;-0.40;99.90;;;;;;5046643;28;20049;-75
2022/12/20 06:24:08;;;;;;;145.25;55.80;;;-0.40;99.90;;;;;;5031707;28;20033;-75
2022/12/20 06:26:37;;;;;;;137.25;50.33;;;-0.40;99.90;;;;;;5023253;28;20127;-77
2022/12/20 06:29:06;;;;;;;100.35;52.85;;;-0.40;99.90;;;;;;5032620;28;20026;-75
2022/12/20 06:31:43;;;;;;;107.13;52.90;;;-0.40;99.90;;;;;;5033171;28;20425;-75
2022/12/20 06:34:09;;;;;;;111.93;48.85;;;-0.40;99.90;;;;;;5033071;28;20094;-74
2022/12/20 06:36:38;;;;;;;209.90;60.83;;;-0.30;99.90;;;;;;5033365;28;20033;-74
2022/12/20 06:39:08;;;;;;;178.70;55.53;;;-0.50;99.90;;;;;;5029057;28;20041;-75
2022/12/20 06:41:36;;;;;;;97.65;48.97;;;-0.40;99.90;;;;;;5026414;28;20040;-75
2022/12/20 06:44:02;;;;;;;134.25;51.28;;;-0.30;99.90;;;;;;5036183;28;20392;-75
2022/12/20 06:46:28;;;;;;;166.45;59.03;;;-0.40;99.90;;;;;;5037223;28;20082;-75
2022/12/20 06:48:56;;;;;;;113.05;51.75;;;-0.40;99.90;;;;;;5037680;28;20043;-75
2022/12/20 06:51:22;;;;;;;118.57;58.15;;;-0.40;99.90;;;;;;5037198;28;20171;-75
2022/12/20 06:53:48;;;;;;;133.43;52.90;;;-0.40;99.90;;;;;;5035543;28;20036;-74
2022/12/20 06:56:15;;;;;;;192.32;60.63;;;-0.40;99.90;;;;;;5029789;28;20021;-75
2022/12/20 06:58:41;;;;;;;146.65;56.65;;;-0.60;99.90;;;;;;5037081;28;20028;-74
2022/12/20 07:01:07;;;;;;;214.25;63.47;;;-0.50;99.90;;;;;;5035469;28;20499;-75
2022/12/20 07:03:33;;;;;;;143.75;62.17;;;-0.60;99.90;;;;;;5046572;28;20040;-75
2022/12/20 07:05:59;;;;;;;195.90;71.45;;;-0.50;99.90;;;;;;5055138;28;20029;-75
2022/12/20 07:08:25;;;;;;;145.35;61.33;;;-0.50;99.90;;;;;;5053395;28;20499;-75
2022/12/20 07:10:51;;;;;;;147.40;66.35;;;-0.50;99.90;;;;;;5055461;28;20024;-75
2022/12/20 07:13:18;;;;;;;157.35;60.25;;;-0.50;99.90;;;;;;5051882;28;20537;-74
2022/12/20 07:15:44;;;;;;;135.45;62.17;;;-0.50;99.90;;;;;;5050483;28;20083;-75
2022/12/20 07:18:10;;;;;;;146.43;63.05;;;-0.40;99.90;;;;;;5041736;28;20033;-74
2022/12/20 07:20:36;;;;;;;141.30;67.28;;;-0.50;99.90;;;;;;5049110;28;20051;-75
2022/12/20 07:23:02;;;;;;;136.38;70.70;;;-0.30;99.90;;;;;;5054730;28;20025;-76
2022/12/20 07:25:28;;;;;;;121.15;63.13;;;-0.20;99.90;;;;;;5043008;28;20061;-75
2022/12/20 07:27:54;;;;;;;156.70;73.35;;;-0.10;99.90;;;;;;5054375;28;20504;-75
2022/12/20 07:30:20;;;;;;;113.15;61.47;;;-0.10;99.90;;;;;;5051279;28;20461;-73
2022/12/20 07:32:47;;;;;;;111.25;60.35;;;0.00;99.90;;;;;;5055193;28;20029;-76
2022/12/20 07:35:13;;;;;;;106.15;56.47;;;0.10;99.90;;;;;;5045125;28;20021;-76
2022/12/20 07:37:39;;;;;;;108.13;58.10;;;0.20;99.90;;;;;;5055253;28;20040;-73
2022/12/20 07:40:06;;;;;;;142.48;63.78;;;0.30;99.90;;;;;;5050338;28;20087;-74
2022/12/20 07:42:32;;;;;;;136.70;63.25;;;0.30;99.90;;;;;;5042798;28;20060;-75
2022/12/20 07:44:58;;;;;;;132.32;63.58;;;0.40;99.90;;;;;;5036652;28;20472;-75
2022/12/20 07:47:24;;;;;;;132.23;62.28;;;0.50;99.90;;;;;;5044925;28;20029;-76
2022/12/20 07:49:53;;;;;;;121.97;63.95;;;0.50;99.90;;;;;;5051660;28;20074;-75
2022/12/20 07:52:23;;;;;;;114.53;61.47;;;0.60;99.90;;;;;;5045389;28;20082;-75
2022/12/20 07:54:56;;;;;;;120.75;58.78;;;0.60;99.90;;;;;;5052742;28;20499;-75
2022/12/20 07:57:44;;;;;;;107.75;57.60;;;0.60;99.90;;;;;;5050032;28;20033;-74
2022/12/20 08:00:11;;;;;;;148.90;63.90;;;0.60;99.90;;;;;;5043072;28;20522;-77
2022/12/20 08:03:00;;;;;;;286.95;82.93;;;0.60;99.90;;;;;;5047916;28;20045;-74
2022/12/20 08:05:26;;;;;;;134.75;60.72;;;0.30;99.90;;;;;;5053721;28;20033;-75
2022/12/20 08:07:55;;;;;;;155.18;65.38;;;0.40;99.90;;;;;;5051323;28;20021;-74
2022/12/20 08:10:21;;;;;;;149.43;62.40;;;0.40;99.90;;;;;;5047145;28;20040;-75
2022/12/20 08:12:47;;;;;;;126.43;67.13;;;0.40;99.90;;;;;;5045438;28;20477;-74
2022/12/20 08:15:14;;;;;;;119.30;64.10;;;0.50;99.90;;;;;;5053701;28;20021;-74
2022/12/20 08:17:40;;;;;;;136.77;67.20;;;0.60;99.90;;;;;;5048073;28;20028;-74
2022/12/20 08:20:07;;;;;;;140.95;67.85;;;0.40;99.90;;;;;;5053418;28;20037;-74
2022/12/20 08:22:33;;;;;;;164.10;68.95;;;0.50;99.90;;;;;;5053207;28;20606;-74
2022/12/20 08:25:00;;;;;;;156.43;69.97;;;0.60;99.90;;;;;;5053808;28;20033;-74
2022/12/20 08:27:26;;;;;;;131.40;74.10;;;0.70;99.90;;;;;;5053695;28;20071;-74
2022/12/20 08:29:52;;;;;;;139.57;72.78;;;0.80;99.90;;;;;;5054138;28;20032;-75
2022/12/20 08:32:17;;;;;;;135.18;74.38;;;0.80;99.90;;;;;;5047423;28;20021;-75
2022/12/20 08:34:43;;;;;;;140.15;78.90;;;0.90;99.90;;;;;;5046728;28;20431;-75
2022/12/20 08:37:09;;;;;;;151.52;80.50;;;1.00;99.90;;;;;;5049887;28;20469;-75
2022/12/20 08:39:36;;;;;;;152.23;81.72;;;1.00;99.90;;;;;;5053281;28;20040;-74
2022/12/20 08:42:03;;;;;;;150.55;86.13;;;1.10;99.90;;;;;;5048320;28;20121;-73
2022/12/20 08:44:32;;;;;;;146.40;77.57;;;1.20;99.90;;;;;;5035442;28;20041;-74
2022/12/20 08:46:58;;;;;;;147.52;78.20;;;1.40;99.90;;;;;;5051475;28;20020;-73
2022/12/20 08:49:23;;;;;;;148.43;79.05;;;1.60;99.90;;;;;;5033856;28;20029;-74
2022/12/20 08:51:49;;;;;;;142.63;82.78;;;1.60;99.90;;;;;;5052330;28;20024;-74
2022/12/20 08:54:16;;;;;;;155.18;80.82;;;1.70;99.90;;;;;;5053299;28;20029;-74
2022/12/20 08:56:42;;;;;;;115.00;69.50;;;1.80;99.90;;;;;;5053364;28;20527;-74
2022/12/20 08:59:08;;;;;;;158.02;86.03;;;1.90;99.90;;;;;;5051958;28;20511;-74
2022/12/20 09:01:34;;;;;;;174.48;98.38;;;2.00;99.90;;;;;;5041910;28;20033;-75
2022/12/20 09:03:59;;;;;;;149.48;82.90;;;1.90;99.90;;;;;;5053148;28;20029;-75
2022/12/20 09:06:26;;;;;;;152.82;84.38;;;1.70;99.90;;;;;;5038420;28;20041;-74
2022/12/20 09:08:51;;;;;;;160.98;86.72;;;1.70;99.90;;;;;;5052898;28;20033;-73
2022/12/20 09:11:23;;;;;;;153.15;79.45;;;1.60;99.90;;;;;;5039900;28;20041;-74
2022/12/20 09:13:51;;;;;;;163.88;81.72;;;1.60;99.90;;;;;;5052554;28;20104;-74
2022/12/20 09:16:21;;;;;;;151.00;81.30;;;1.50;99.90;;;;;;5046180;28;20040;-75
2022/12/20 09:18:49;;;;;;;148.15;81.65;;;1.60;99.90;;;;;;5042682;28;20094;-74
2022/12/20 09:21:14;;;;;;;145.35;79.32;;;1.60;99.90;;;;;;5042206;28;20102;-75
2022/12/20 09:23:40;;;;;;;151.82;78.45;;;1.50;99.90;;;;;;5052771;28;20037;-74
2022/12/20 09:26:15;;;;;;;151.00;82.88;;;1.50;99.90;;;;;;5045870;28;20029;-73
2022/12/20 09:28:43;;;;;;;155.32;81.35;;;1.60;99.90;;;;;;5048873;28;20487;-76
2022/12/20 09:31:13;;;;;;;150.98;78.72;;;1.40;99.90;;;;;;5052753;28;20040;-74
2022/12/20 09:33:39;;;;;;;132.50;76.15;;;1.30;99.90;;;;;;5038269;28;20048;-76
2022/12/20 09:36:06;;;;;;;134.82;74.82;;;1.40;99.90;;;;;;5043698;28;20464;-76
2022/12/20 09:38:32;;;;;;;133.65;71.65;;;1.50;99.90;;;;;;5052271;28;20104;-76
2022/12/20 09:41:04;;;;;;;129.68;74.30;;;1.50;99.90;;;;;;5052106;28;20055;-76
2022/12/20 09:43:31;;;;;;;127.93;71.15;;;1.50;99.90;;;;;;5046992;28;20079;-76
2022/12/20 09:46:02;;;;;;;140.57;75.03;;;1.60;99.90;;;;;;5049169;28;20450;-75
2022/12/20 09:48:34;;;;;;;137.00;83.05;;;1.70;99.90;;;;;;5051387;28;20029;-75
2022/12/20 09:51:09;;;;;;;132.88;75.68;;;1.80;99.90;;;;;;5052216;28;20033;-76
2022/12/20 09:53:40;;;;;;;132.00;75.75;;;1.80;99.90;;;;;;5051572;28;20385;-76
2022/12/20 09:56:15;;;;;;;152.27;80.88;;;1.90;99.90;;;;;;5051712;28;20029;-73
2022/12/20 09:58:56;;;;;;;139.00;78.68;;;2.00;99.90;;;;;;5041060;28;20025;-74
2022/12/20 10:01:27;;;;;;;117.95;70.40;;;2.10;99.90;;;;;;5046204;28;20033;-77
2022/12/20 10:03:54;;;;;;;126.22;69.95;;;2.10;99.90;;;;;;5044695;28;20480;-74
2022/12/20 10:06:48;;;;;;;137.70;72.85;;;2.10;99.90;;;;;;5051713;28;20060;-74
2022/12/20 10:09:38;;;;;;;150.55;78.45;;;2.00;99.90;;;;;;5047862;28;20100;-73
2022/12/20 10:12:29;;;;;;;145.98;82.57;;;2.20;99.90;;;;;;5051660;28;20040;-73
2022/12/20 10:15:15;;;;;;;159.10;88.63;;;2.20;99.90;;;;;;5047315;28;20021;-74
2022/12/20 10:17:58;;;;;;;175.27;92.25;;;2.40;99.90;;;;;;5029193;28;20025;-75
2022/12/20 10:20:33;;;;;;;151.02;82.68;;;2.50;99.90;;;;;;5047102;28;20052;-75
2022/12/20 10:23:12;;;;;;;143.63;83.38;;;2.50;99.90;;;;;;5047423;28;20059;-73
2022/12/20 10:25:40;;;;;;;145.55;84.88;;;2.60;99.90;;;;;;5051199;28;20115;-76
2022/12/20 10:28:15;;;;;;;153.02;81.03;;;2.70;99.90;;;;;;5050887;28;20013;-75
2022/12/20 10:30:42;;;;;;;144.15;80.68;;;2.80;99.90;;;;;;5042958;28;20103;-75
2022/12/20 10:33:21;;;;;;;151.23;83.15;;;2.80;99.90;;;;;;5041333;28;20108;-75
2022/12/20 10:35:49;;;;;;;138.30;77.93;;;2.90;99.90;;;;;;5050869;28;20032;-76
2022/12/20 10:38:17;;;;;;;147.13;78.05;;;2.70;99.90;;;;;;5050621;28;20555;-75
2022/12/20 10:40:45;;;;;;;148.57;78.43;;;3.00;99.90;;;;;;5032426;28;20041;-75
2022/12/20 10:43:18;;;;;;;141.85;79.72;;;3.10;99.90;;;;;;5051917;28;20033;-75
2022/12/20 10:45:59;;;;;;;135.20;79.22;;;3.20;99.90;;;;;;5051383;28;20120;-75
2022/12/20 10:48:46;;;;;;;130.75;74.93;;;3.30;99.90;;;;;;5049546;28;20060;-75
2022/12/20 10:51:18;;;;;;;142.18;78.72;;;3.40;99.90;;;;;;5030357;28;20102;-75
2022/12/20 10:53:56;;;;;;;128.35;74.20;;;3.20;99.90;;;;;;5046150;28;20063;-75
2022/12/20 10:56:31;;;;;;;129.13;74.78;;;3.10;99.90;;;;;;5050876;28;20048;-76
2022/12/20 10:59:29;;;;;;;127.35;73.07;;;3.20;99.90;;;;;;5043718;28;20413;-75
2022/12/20 11:01:55;;;;;;;138.43;77.20;;;3.30;99.90;;;;;;5050860;28;20480;-75
2022/12/20 11:04:33;;;;;;;132.77;73.72;;;3.20;99.90;;;;;;5051184;28;20051;-77
2022/12/20 11:07:01;;;;;;;124.65;73.10;;;3.40;99.90;;;;;;5051222;28;20107;-75
2022/12/20 11:09:35;;;;;;;125.65;77.63;;;3.40;99.90;;;;;;5050620;28;20017;-75
2022/12/20 11:12:15;;;;;;;139.55;78.95;;;3.50;99.90;;;;;;5050808;28;20083;-74
2022/12/20 11:14:44;;;;;;;132.45;78.10;;;3.40;99.90;;;;;;5050823;28;20033;-75
2022/12/20 11:17:31;;;;;;;122.32;75.60;;;3.40;99.90;;;;;;5050840;28;20095;-75
2022/12/20 11:20:07;;;;;;;114.55;67.72;;;3.40;99.90;;;;;;5042587;28;20037;-75
2022/12/20 11:23:03;;;;;;;123.93;73.32;;;3.40;99.90;;;;;;5038245;28;20054;-75
2022/12/20 11:25:59;;;;;;;111.53;66.63;;;3.40;99.90;;;;;;5047788;28;20091;-74
2022/12/20 11:28:52;;;;;;;122.47;70.70;;;3.50;99.90;;;;;;5045468;28;20025;-75
2022/12/20 11:31:45;;;;;;;124.30;71.93;;;3.30;99.90;;;;;;5042083;28;20029;-75
2022/12/20 11:34:21;;;;;;;120.83;70.03;;;3.20;99.90;;;;;;5043792;28;20021;-75
2022/12/20 11:36:50;;;;;;;121.30;72.78;;;3.20;99.90;;;;;;5053260;28;20273;-74
2022/12/20 11:39:48;;;;;;;112.55;70.07;;;3.40;99.90;;;;;;5054138;28;20036;-73
2022/12/20 11:42:37;;;;;;;125.43;74.90;;;3.60;99.90;;;;;;5053173;28;20029;-74
2022/12/20 11:45:18;;;;;;;127.18;77.47;;;3.70;99.90;;;;;;5050408;28;20048;-74
2022/12/20 11:48:38;;;;;;;128.60;80.78;;;3.80;99.90;;;;;;5050487;28;20029;-74
2022/12/20 11:51:25;;;;;;;111.85;71.97;;;3.90;99.90;;;;;;4952874;29;20051;-73
2022/12/20 11:54:12;;;;;;;109.82;57.40;;;4.10;99.90;;;;;;4949475;29;20106;-73
2022/12/20 11:56:45;;;;;;;92.03;54.15;;;3.90;99.90;;;;;;4940082;29;20035;-74
2022/12/20 11:59:29;;;;;;;99.28;59.35;;;3.90;99.90;;;;;;4950293;29;20047;-74
2022/12/20 12:01:59;;;;;;;105.97;63.05;;;3.90;99.90;;;;;;4953502;29;20042;-74
2022/12/20 12:04:29;;;;;;;98.03;60.20;;;3.90;99.90;;;;;;4951468;29;20122;-74
2022/12/20 12:07:03;;;;;;;104.97;60.30;;;4.00;99.90;;;;;;4953011;29;20522;-75
2022/12/20 12:09:37;;;;;;;98.00;60.63;;;3.90;99.90;;;;;;4950479;29;20039;-74
2022/12/20 12:12:09;;;;;;;90.32;56.85;;;3.60;99.90;;;;;;4950213;29;20054;-74
2022/12/20 12:14:44;;;;;;;99.80;58.42;;;3.60;99.90;;;;;;4953974;29;20027;-74
2022/12/20 12:17:42;;;;;;;89.82;53.40;;;3.40;99.90;;;;;;4949746;29;20042;-74
2022/12/20 12:20:39;;;;;;;91.20;54.28;;;3.40;99.90;;;;;;4874585;29;20102;-73
2022/12/20 12:23:17;;;;;;;98.63;58.72;;;3.20;99.90;;;;;;4878353;29;20094;-74
2022/12/20 12:25:43;;;;;;;98.78;52.90;;;3.20;99.90;;;;;;4934804;29;20062;-74
2022/12/20 12:28:12;;;;;;;87.72;54.92;;;3.30;99.90;;;;;;4953354;29;20065;-73
2022/12/20 12:30:59;;;;;;;93.50;52.25;;;3.40;99.90;;;;;;4952865;29;20130;-75
2022/12/20 12:33:34;;;;;;;91.55;55.85;;;3.50;99.90;;;;;;4953034;29;20035;-73
2022/12/20 12:36:28;;;;;;;93.88;57.63;;;3.60;99.90;;;;;;4952962;29;20035;-73
2022/12/20 12:39:12;;;;;;;;;;;3.50;99.90;;;;;;4936954;28;20499;-73
2022/12/20 12:42:04;;;;;;;81.45;51.60;;;3.50;99.90;;;;;;4953064;29;19968;-73
2022/12/20 12:44:47;;;;;;;89.63;53.58;;;3.50;99.90;;;;;;4952341;29;20035;-73
2022/12/20 12:47:22;;;;;;;95.90;51.60;;;3.50;99.90;;;;;;4953390;29;20035;-72
2022/12/20 12:49:51;;;;;;;87.22;51.50;;;3.50;99.90;;;;;;4952665;29;20036;-73